createdAt,value
2022-08-30T00:03:17.385Z,12.50
2022-08-30T00:08:19.666Z,10.60
2022-08-30T00:13:22.162Z,14.80
2022-08-30T00:18:24.541Z,18.70
2022-08-30T00:23:26.965Z,15.50
2022-08-30T00:28:28.925Z,18.70
2022-08-30T00:33:30.614Z,15.10
2022-08-30T00:38:32.991Z,12.60
2022-08-30T00:43:36.732Z,11.50
2022-08-30T00:48:42.298Z,13.10
2022-08-30T00:53:46.649Z,10.00
2022-08-30T00:58:50.545Z,11.60
2022-08-30T01:03:52.446Z,10.10
2022-08-30T01:08:54.407Z,14.80
2022-08-30T01:13:56.362Z,10.90
2022-08-30T01:18:59.090Z,9.20
2022-08-30T01:24:01.199Z,8.90
2022-08-30T01:29:10.273Z,10.50
2022-08-30T01:34:12.132Z,14.00
2022-08-30T01:39:15.416Z,15.30
2022-08-30T01:44:17.119Z,11.10
2022-08-30T01:49:27.605Z,9.90
2022-08-30T01:54:37.023Z,14.30
2022-08-30T01:59:43.064Z,13.80
2022-08-30T02:04:44.707Z,29.30
2022-08-30T02:09:46.671Z,24.10
2022-08-30T02:14:48.743Z,22.50
2022-08-30T02:19:50.526Z,27.80
2022-08-30T02:24:52.223Z,19.20
2022-08-30T02:29:54.078Z,18.40
2022-08-30T02:34:55.753Z,18.10
2022-08-30T02:39:57.666Z,14.00
2022-08-30T02:45:00.534Z,14.70
2022-08-30T02:50:03.233Z,12.80
2022-08-30T02:55:05.758Z,18.30
2022-08-30T03:00:08.542Z,13.70
2022-08-30T03:05:13.134Z,16.00
2022-08-30T03:10:15.570Z,12.40
2022-08-30T03:15:17.279Z,18.60
2022-08-30T03:20:20.069Z,20.80
2022-08-30T03:25:22.155Z,15.20
2022-08-30T03:30:23.831Z,14.40
2022-08-30T03:35:25.886Z,12.80
2022-08-30T03:40:31.976Z,15.00
2022-08-30T03:45:34.502Z,13.50
2022-08-30T03:50:37.042Z,13.70
2022-08-30T03:55:38.730Z,15.10
2022-08-30T04:00:40.534Z,14.40
2022-08-30T04:05:42.384Z,12.50
2022-08-30T04:10:44.367Z,13.90
2022-08-30T04:15:46.142Z,11.00
2022-08-30T04:20:47.842Z,10.40
2022-08-30T04:25:49.594Z,9.70
2022-08-30T04:30:51.577Z,14.00
2022-08-30T04:35:53.379Z,11.60
2022-08-30T04:40:55.877Z,20.00
2022-08-30T04:45:58.057Z,12.90
2022-08-30T04:50:59.839Z,17.50
2022-08-30T04:56:01.678Z,22.00
2022-08-30T05:01:03.856Z,16.60
2022-08-30T05:06:06.454Z,20.90
2022-08-30T05:11:09.513Z,13.90
2022-08-30T05:16:11.402Z,24.40
2022-08-30T05:21:26.860Z,19.30
2022-08-30T05:26:33.865Z,19.10
2022-08-30T05:31:36.348Z,13.00
2022-08-30T05:36:38.744Z,15.60
2022-08-30T05:41:40.625Z,19.40
2022-08-30T05:46:47.316Z,15.60
2022-08-30T05:51:49.301Z,22.50
2022-08-30T05:56:51.077Z,22.50
2022-08-30T06:01:56.357Z,45.90
2022-08-30T06:06:58.299Z,30.60
2022-08-30T06:12:00.000Z,21.60
2022-08-30T06:17:01.763Z,17.00
2022-08-30T06:22:03.578Z,20.70
2022-08-30T06:27:05.514Z,23.00
2022-08-30T06:32:07.309Z,22.00
2022-08-30T06:37:09.006Z,22.00
2022-08-30T06:42:10.723Z,18.80
2022-08-30T06:47:12.346Z,22.20
2022-08-30T06:52:14.007Z,14.30
2022-08-30T06:57:15.658Z,17.70
2022-08-30T07:02:17.414Z,20.70
2022-08-30T07:07:19.850Z,21.30
2022-08-30T07:12:21.753Z,17.80
2022-08-30T07:17:42.246Z,12.40
2022-08-30T07:22:44.055Z,9.90
2022-08-30T07:27:46.166Z,15.60
2022-08-30T07:32:48.295Z,15.50
2022-08-30T07:37:50.582Z,8.80
2022-08-30T07:42:52.669Z,11.10
2022-08-30T07:47:54.368Z,15.70
2022-08-30T07:52:56.120Z,12.70
2022-08-30T07:57:57.764Z,12.70
2022-08-30T08:03:04.736Z,9.50
2022-08-30T08:08:06.546Z,9.30
2022-08-30T08:13:08.270Z,9.30
2022-08-30T08:18:11.048Z,11.30
2022-08-30T08:23:12.680Z,9.40
2022-08-30T08:28:14.529Z,7.40
2022-08-30T08:33:16.703Z,10.50
2022-08-30T08:38:18.587Z,9.50
2022-08-30T08:43:23.226Z,11.70
2022-08-30T08:48:59.004Z,8.60
2022-08-30T08:54:10.946Z,7.10
2022-08-30T08:59:13.559Z,5.00
2022-08-30T09:04:17.589Z,6.10
2022-08-30T09:09:26.047Z,6.20
2022-08-30T09:14:44.231Z,4.40
2022-08-30T09:19:54.224Z,7.50
2022-08-30T09:25:00.844Z,5.30
2022-08-30T09:30:08.028Z,9.30
2022-08-30T09:35:34.603Z,5.50
2022-08-30T09:40:39.179Z,64.70
2022-08-30T09:45:42.938Z,6.00
2022-08-30T09:50:46.486Z,4.00
2022-08-30T09:56:10.094Z,7.30
2022-08-30T10:01:14.952Z,4.70
2022-08-30T10:06:43.098Z,4.40
2022-08-30T10:11:50.942Z,6.30
2022-08-30T10:16:55.557Z,6.10
2022-08-30T10:22:00.323Z,5.50
2022-08-30T10:27:07.552Z,5.70
2022-08-30T10:32:18.612Z,4.80
2022-08-30T10:37:21.959Z,4.30
2022-08-30T10:42:26.484Z,2.90
2022-08-30T10:47:46.810Z,3.80
2022-08-30T10:52:54.252Z,4.20
2022-08-30T10:58:02.721Z,3.30
2022-08-30T11:03:15.437Z,3.90
2022-08-30T11:08:20.336Z,6.50
2022-08-30T11:13:24.231Z,3.10
2022-08-30T11:18:28.206Z,4.50
2022-08-30T11:23:34.825Z,8.20
2022-08-30T11:28:36.552Z,3.00
2022-08-30T11:33:46.261Z,2.70
2022-08-30T11:38:48.182Z,2.20
2022-08-30T11:43:55.858Z,2.50
2022-08-30T11:49:00.597Z,2.80
2022-08-30T11:54:19.427Z,4.20
2022-08-30T11:59:39.706Z,3.80
2022-08-30T12:04:45.920Z,2.50
2022-08-30T12:09:47.614Z,2.30
2022-08-30T12:14:49.542Z,2.60
2022-08-30T12:19:51.957Z,5.70
2022-08-30T12:24:54.418Z,2.50
2022-08-30T12:29:59.475Z,3.00
2022-08-30T12:35:03.258Z,2.60
2022-08-30T12:40:10.301Z,3.00
2022-08-30T12:45:14.082Z,1.70
2022-08-30T12:50:24.584Z,2.10
2022-08-30T12:55:33.959Z,2.20
2022-08-30T13:00:39.959Z,1.90
2022-08-30T13:05:45.806Z,2.20
2022-08-30T13:10:51.168Z,1.60
2022-08-30T13:15:52.954Z,1.70
2022-08-30T13:21:30.095Z,1.70
2022-08-30T13:26:34.317Z,1.70
2022-08-30T13:31:37.161Z,2.10
2022-08-30T13:36:46.046Z,4.20
2022-08-30T13:41:49.394Z,4.90
2022-08-30T13:46:55.133Z,3.80
2022-08-30T13:52:19.127Z,1.50
2022-08-30T14:02:47.620Z,2.20
2022-08-30T14:07:52.076Z,2.20
2022-08-30T14:12:56.182Z,2.40
2022-08-30T14:18:00.766Z,1.70
2022-08-30T14:23:02.752Z,3.10
2022-08-30T14:28:09.946Z,2.00
2022-08-30T14:33:11.818Z,5.80
2022-08-30T14:38:15.444Z,7.70
2022-08-30T14:43:17.439Z,3.80
2022-08-30T14:48:20.376Z,2.70
2022-08-30T14:53:23.048Z,1.90
2022-08-30T14:58:25.227Z,1.50
2022-08-30T15:03:27.748Z,2.50
2022-08-30T15:08:29.736Z,1.70
2022-08-30T15:13:31.686Z,3.00
2022-08-30T15:18:33.566Z,1.40
2022-08-30T15:23:35.853Z,2.10
2022-08-30T15:28:38.046Z,3.30
2022-08-30T15:33:40.227Z,1.30
2022-08-30T15:38:46.308Z,3.60
2022-08-30T15:43:48.185Z,1.30
2022-08-30T15:48:52.123Z,4.40
2022-08-30T15:53:53.891Z,2.40
2022-08-30T15:58:55.829Z,2.00
2022-08-30T16:03:58.060Z,1.30
2022-08-30T16:08:59.940Z,1.50
2022-08-30T16:14:02.227Z,1.30
2022-08-30T16:19:05.436Z,2.70
2022-08-30T16:24:10.620Z,3.10
2022-08-30T16:29:15.446Z,2.50
2022-08-30T16:34:18.245Z,2.90
2022-08-30T16:39:20.364Z,1.90
2022-08-30T16:44:22.308Z,2.00
2022-08-30T16:49:31.768Z,3.80
2022-08-30T16:54:33.978Z,2.30
2022-08-30T16:59:36.780Z,2.30
2022-08-30T17:04:38.511Z,3.10
2022-08-30T17:09:41.096Z,2.70
2022-08-30T17:14:42.906Z,2.00
2022-08-30T17:19:45.781Z,1.70
2022-08-30T17:24:47.545Z,2.00
2022-08-30T17:29:51.026Z,3.90
2022-08-30T17:34:53.149Z,3.20
2022-08-30T17:39:54.941Z,2.60
2022-08-30T17:44:57.529Z,3.70
2022-08-30T17:50:03.857Z,3.40
2022-08-30T17:55:07.909Z,5.20
2022-08-30T18:00:11.325Z,4.90
2022-08-30T18:05:17.619Z,4.50
2022-08-30T18:10:27.217Z,5.40
2022-08-30T18:15:34.797Z,9.50
2022-08-30T18:20:36.884Z,7.40
2022-08-30T18:25:39.023Z,5.70
2022-08-30T18:30:42.357Z,9.30
2022-08-30T18:35:48.286Z,5.80
2022-08-30T18:40:50.948Z,13.10
2022-08-30T18:45:52.743Z,7.50
2022-08-30T18:50:54.553Z,13.30
2022-08-30T18:55:57.881Z,8.00
2022-08-30T19:00:59.626Z,7.90
2022-08-30T19:06:05.666Z,7.00
2022-08-30T19:11:09.350Z,7.10
2022-08-30T19:16:12.071Z,3.80
2022-08-30T19:21:15.057Z,5.70
2022-08-30T19:26:19.302Z,7.50
2022-08-30T19:31:21.018Z,8.30
2022-08-30T19:36:22.861Z,7.30
2022-08-30T19:41:24.586Z,8.30
2022-08-30T19:46:26.278Z,8.00
2022-08-30T19:51:28.621Z,9.90
2022-08-30T19:56:30.647Z,11.10
2022-08-30T20:01:33.936Z,9.10
2022-08-30T20:06:35.940Z,7.20
2022-08-30T20:11:39.084Z,9.40
2022-08-30T20:16:41.710Z,9.60
2022-08-30T20:21:43.579Z,11.00
2022-08-30T20:26:45.405Z,9.80
2022-08-30T20:31:49.030Z,10.10
2022-08-30T20:36:52.171Z,12.20
2022-08-30T20:41:57.336Z,9.90
2022-08-30T20:46:59.151Z,9.80
2022-08-30T20:52:00.870Z,11.90
2022-08-30T20:57:07.271Z,9.00
2022-08-30T21:02:09.016Z,10.80
2022-08-30T21:07:13.270Z,10.30
2022-08-30T21:12:15.315Z,8.80
2022-08-30T21:17:20.123Z,10.10
2022-08-30T21:22:22.238Z,10.00
2022-08-30T21:27:24.055Z,12.80
2022-08-30T21:32:25.856Z,9.60
2022-08-30T21:37:27.722Z,8.20
2022-08-30T21:42:29.703Z,7.80
2022-08-30T21:47:31.586Z,8.70
2022-08-30T21:52:33.774Z,9.00
2022-08-30T21:57:35.649Z,10.80
2022-08-30T22:02:37.589Z,11.30
2022-08-30T22:07:40.238Z,9.00
2022-08-30T22:12:42.120Z,9.20
2022-08-30T22:17:44.198Z,8.20
2022-08-30T22:22:46.183Z,7.50
2022-08-30T22:27:48.166Z,8.50
2022-08-30T22:32:52.654Z,9.30
2022-08-30T22:37:57.147Z,9.40
2022-08-30T22:43:00.256Z,9.80
2022-08-30T22:48:02.242Z,9.10
2022-08-30T22:53:04.728Z,8.90
2022-08-30T22:58:06.610Z,8.40
2022-08-30T23:03:08.491Z,8.80
2022-08-30T23:08:10.367Z,11.70
2022-08-30T23:13:12.139Z,8.40
2022-08-30T23:18:14.023Z,9.00
2022-08-30T23:23:34.640Z,9.70
2022-08-30T23:28:55.492Z,9.50
2022-08-30T23:34:16.288Z,9.30
2022-08-30T23:39:36.726Z,9.60
2022-08-30T23:44:57.323Z,11.60
2022-08-30T23:50:18.045Z,10.60
2022-08-30T23:55:38.561Z,10.40
